KUIL Airport Information

Runway Information
Runway 04 Length 4210 ft width 100 ft
Elevation 175 ft Threshold 0 ft Heading 58
Runway 22 Length 4210 ft Width 100 ft
Elevation 194 ft Threshold 1089 ft Heading 238
Airport Frequencies
Type ASOS Name ASOS Frequency 135.225 MHZ
Type CTAF Name CTAF Frequency 122.9 MHZ
Airport Navaids
Airport Weather Information & NOTAM
ADDS - METARS form results

(1538 UTC 25 June 2018)
 
METAR text: KUIL 251515Z AUTO 19003KT 10SM -RA SCT006 BKN023 OVC050 12/11 A3003 RMK AO2 RAB08 P0000 T01220111 $
Conditions at: KUIL (QUILLAYUTE , WA, US) observed 1515 UTC 25 June 2018
Temperature: 12.2°C (54°F)
Dewpoint: 11.1°C (52°F) [RH = 93%]
Pressure (altimeter): 30.03 inches Hg (1017.0 mb)
Winds: from the S (190 degrees) at 3 MPH (3 knots; 1.6 m/s)
Visibility: 10 or more miles (16+ km)
Ceiling: 2300 feet AGL
Clouds: scattered clouds at 600 feet AGL
broken clouds at 2300 feet AGL
overcast cloud deck at 5000 feet AGL
Weather: -RA  (light rain)
SOME DATA ABOVE MAY BE INACCURATE!!!
"$" is an indication the sensor requires maintenance

METAR text: KUIL 251502Z AUTO 19003KT 10SM FEW006 SCT027 BKN050 13/12 A3003 RMK AO2 T01280117 $
Conditions at: KUIL (QUILLAYUTE , WA, US) observed 1502 UTC 25 June 2018
Temperature: 12.8°C (55°F)
Dewpoint: 11.7°C (53°F) [RH = 93%]
Pressure (altimeter): 30.03 inches Hg (1017.0 mb)
Winds: from the S (190 degrees) at 3 MPH (3 knots; 1.6 m/s)
Visibility: 10 or more miles (16+ km)
Ceiling: 5000 feet AGL
Clouds: few clouds at 600 feet AGL
scattered clouds at 2700 feet AGL
broken clouds at 5000 feet AGL
Weather:
SOME DATA ABOVE MAY BE INACCURATE!!!
"$" is an indication the sensor requires maintenance

METAR text: KUIL 251453Z AUTO 19004KT 10SM FEW027 BKN055 13/12 A3003 RMK AO2 SLP168 T01330117 53012 $
Conditions at: KUIL (QUILLAYUTE , WA, US) observed 1453 UTC 25 June 2018
Temperature: 13.3°C (56°F)
Dewpoint: 11.7°C (53°F) [RH = 90%]
Pressure (altimeter): 30.03 inches Hg (1017.0 mb)
[Sea-level pressure: 1016.8 mb]
Winds: from the S (190 degrees) at 5 MPH (4 knots; 2.1 m/s)
Visibility: 10 or more miles (16+ km)
Ceiling: 5500 feet AGL
Clouds: few clouds at 2700 feet AGL
broken clouds at 5500 feet AGL
Weather:
SOME DATA ABOVE MAY BE INACCURATE!!!
"$" is an indication the sensor requires maintenance